createdAt,value
2023-01-05T00:00:12.915Z,10.92
2023-01-05T00:02:39.477Z,11.03
2023-01-05T00:05:06.143Z,10.89
2023-01-05T00:07:32.524Z,10.91
2023-01-05T00:09:58.885Z,10.90
2023-01-05T00:12:44.099Z,10.91
2023-01-05T00:15:29.210Z,10.85
2023-01-05T00:18:14.222Z,10.91
2023-01-05T00:20:58.941Z,10.83
2023-01-05T00:23:25.354Z,10.86
2023-01-05T00:25:51.874Z,10.86
2023-01-05T00:28:18.250Z,10.82
2023-01-05T00:30:46.124Z,10.79
2023-01-05T00:33:15.401Z,10.68
2023-01-05T00:35:41.929Z,10.62
2023-01-05T00:38:09.062Z,10.74
2023-01-05T00:40:36.922Z,10.74
2023-01-05T00:43:03.751Z,10.68
2023-01-05T00:45:30.372Z,10.59
2023-01-05T00:47:56.915Z,10.57
2023-01-05T00:50:23.885Z,10.58
2023-01-05T00:52:50.322Z,10.66
2023-01-05T00:55:16.893Z,10.68
2023-01-05T00:57:43.494Z,10.68
2023-01-05T01:00:17.153Z,10.75
2023-01-05T01:02:43.974Z,10.78
2023-01-05T01:05:10.730Z,10.70
2023-01-05T01:07:37.105Z,10.81
2023-01-05T01:10:04.073Z,10.80
2023-01-05T01:12:30.483Z,10.68
2023-01-05T01:14:56.885Z,10.74
2023-01-05T01:17:23.321Z,10.71
2023-01-05T01:19:49.779Z,10.71
2023-01-05T01:22:16.167Z,10.64
2023-01-05T01:24:42.536Z,10.77
2023-01-05T01:27:09.267Z,10.71
2023-01-05T01:29:35.799Z,10.85
2023-01-05T01:32:02.352Z,10.81
2023-01-05T01:34:28.816Z,10.71
2023-01-05T01:36:56.429Z,10.78
2023-01-05T01:39:22.945Z,10.81
2023-01-05T01:41:49.429Z,10.89
2023-01-05T01:44:52.961Z,10.69
2023-01-05T01:47:22.404Z,10.88
2023-01-05T01:49:49.050Z,10.79
2023-01-05T01:52:15.921Z,10.82
2023-01-05T01:54:42.710Z,10.82
2023-01-05T01:57:10.946Z,10.92
2023-01-05T01:59:37.547Z,10.84
2023-01-05T02:02:04.527Z,10.81
2023-01-05T02:04:32.369Z,10.78
2023-01-05T02:06:59.444Z,10.84
2023-01-05T02:09:25.917Z,10.76
2023-01-05T02:12:22.334Z,10.76
2023-01-05T02:15:00.118Z,10.76
2023-01-05T02:17:39.097Z,10.71
2023-01-05T02:20:25.594Z,10.66
2023-01-05T02:23:01.044Z,10.80
2023-01-05T02:25:55.714Z,10.68
2023-01-05T02:28:40.897Z,10.65
2023-01-05T02:31:13.825Z,10.75
2023-01-05T02:34:03.195Z,10.68
2023-01-05T02:37:02.826Z,10.72
2023-01-05T02:39:35.150Z,10.68
2023-01-05T02:42:05.389Z,10.66
2023-01-05T02:44:33.238Z,10.68
2023-01-05T02:47:07.530Z,10.66
2023-01-05T02:49:38.699Z,10.59
2023-01-05T02:52:06.493Z,10.78
2023-01-05T02:54:44.400Z,10.74
2023-01-05T02:57:16.190Z,10.68
2023-01-05T02:59:53.324Z,10.67
2023-01-05T03:02:23.714Z,10.68
2023-01-05T03:04:56.458Z,10.59
2023-01-05T03:07:26.583Z,10.64
2023-01-05T03:09:53.304Z,10.65
2023-01-05T03:12:46.060Z,10.68
2023-01-05T03:15:18.606Z,10.79
2023-01-05T03:17:54.873Z,10.56
2023-01-05T03:20:24.091Z,10.71
2023-01-05T03:23:10.725Z,10.69
2023-01-05T03:25:59.379Z,10.71
2023-01-05T03:28:59.007Z,10.75
2023-01-05T03:31:54.830Z,10.76
2023-01-05T03:34:47.408Z,10.57
2023-01-05T03:37:17.584Z,10.67
2023-01-05T03:39:46.757Z,10.68
2023-01-05T03:42:14.287Z,10.75
2023-01-05T03:44:44.314Z,10.67
2023-01-05T03:47:10.684Z,10.64
2023-01-05T03:49:37.709Z,10.74
2023-01-05T03:52:04.440Z,10.66
2023-01-05T03:54:30.834Z,10.67
2023-01-05T03:56:57.268Z,10.64
2023-01-05T03:59:23.698Z,10.65
2023-01-05T04:01:50.242Z,10.70
2023-01-05T04:04:16.697Z,10.56
2023-01-05T04:06:43.119Z,10.60
2023-01-05T04:09:09.537Z,10.66
2023-01-05T04:11:35.924Z,10.78
2023-01-05T04:14:02.304Z,10.59
2023-01-05T04:16:28.914Z,10.67
2023-01-05T04:18:55.451Z,10.72
2023-01-05T04:21:21.878Z,10.66
2023-01-05T04:23:48.256Z,10.68
2023-01-05T04:26:14.650Z,10.61
2023-01-05T04:28:41.066Z,10.70
2023-01-05T04:31:07.476Z,10.66
2023-01-05T04:33:33.892Z,10.76
2023-01-05T04:36:00.311Z,10.69
2023-01-05T04:38:26.720Z,10.76
2023-01-05T04:40:53.203Z,10.71
2023-01-05T04:43:19.957Z,10.71
2023-01-05T04:45:48.202Z,10.61
2023-01-05T04:48:15.155Z,10.63
2023-01-05T04:50:41.604Z,10.65
2023-01-05T04:53:08.106Z,10.69
2023-01-05T04:55:34.485Z,10.70
2023-01-05T04:58:00.861Z,10.75
2023-01-05T05:00:27.305Z,10.69
2023-01-05T05:02:53.747Z,10.72
2023-01-05T05:05:20.186Z,10.55
2023-01-05T05:07:46.551Z,10.67
2023-01-05T05:10:13.068Z,10.62
2023-01-05T05:12:39.504Z,10.62
2023-01-05T05:15:06.423Z,10.57
2023-01-05T05:17:33.106Z,10.56
2023-01-05T05:19:59.504Z,10.54
2023-01-05T05:22:26.323Z,10.58
2023-01-05T05:24:52.692Z,10.63
2023-01-05T05:27:19.139Z,10.61
2023-01-05T05:29:45.565Z,10.53
2023-01-05T05:32:11.943Z,10.45
2023-01-05T05:34:38.322Z,10.59
2023-01-05T05:37:04.834Z,10.59
2023-01-05T05:39:31.224Z,10.49
2023-01-05T05:41:57.599Z,10.50
2023-01-05T05:44:23.996Z,10.47
2023-01-05T05:46:50.478Z,10.47
2023-01-05T05:49:17.003Z,10.37
2023-01-05T05:51:43.403Z,10.42
2023-01-05T05:54:09.898Z,10.35
2023-01-05T05:56:36.316Z,10.40
2023-01-05T05:59:02.704Z,10.37
2023-01-05T06:01:29.510Z,10.32
2023-01-05T06:03:56.017Z,10.34
2023-01-05T06:06:22.565Z,10.33
2023-01-05T06:08:49.060Z,10.33
2023-01-05T06:11:15.437Z,10.38
2023-01-05T06:13:42.213Z,10.30
2023-01-05T06:16:08.681Z,10.43
2023-01-05T06:18:35.245Z,10.42
2023-01-05T06:21:02.191Z,10.47
2023-01-05T06:23:28.780Z,10.48
2023-01-05T06:25:55.176Z,10.56
2023-01-05T06:28:21.561Z,10.51
2023-01-05T06:30:48.408Z,10.48
2023-01-05T06:33:14.868Z,10.50
2023-01-05T06:35:41.283Z,10.52
2023-01-05T06:38:07.693Z,10.55
2023-01-05T06:40:34.054Z,10.59
2023-01-05T06:43:00.438Z,10.61
2023-01-05T06:45:26.873Z,10.62
2023-01-05T06:47:53.851Z,10.59
2023-01-05T06:50:20.300Z,10.59
2023-01-05T06:52:46.750Z,10.68
2023-01-05T06:55:13.155Z,10.72
2023-01-05T06:57:39.561Z,10.70
2023-01-05T07:00:09.328Z,10.71
2023-01-05T07:02:35.871Z,10.64
2023-01-05T07:05:02.421Z,10.68
2023-01-05T07:07:28.909Z,10.67
2023-01-05T07:09:55.357Z,10.54
2023-01-05T07:12:21.831Z,10.59
2023-01-05T07:14:52.900Z,10.50
2023-01-05T07:17:22.195Z,10.44
2023-01-05T07:19:48.635Z,10.46
2023-01-05T07:22:15.282Z,10.49
2023-01-05T07:24:41.743Z,10.40
2023-01-05T07:27:09.926Z,10.48
2023-01-05T07:29:36.658Z,10.45
2023-01-05T07:32:03.257Z,10.41
2023-01-05T07:34:29.668Z,10.34
2023-01-05T07:36:56.123Z,10.33
2023-01-05T07:39:22.555Z,10.38
2023-01-05T07:41:48.977Z,10.25
2023-01-05T07:44:15.401Z,10.31
2023-01-05T07:46:41.849Z,10.30
2023-01-05T07:49:08.343Z,10.28
2023-01-05T07:51:35.571Z,10.19
2023-01-05T07:54:02.011Z,10.28
2023-01-05T07:56:28.420Z,10.30
2023-01-05T07:58:54.891Z,10.32
2023-01-05T08:01:21.700Z,10.36
2023-01-05T08:03:48.427Z,10.34
2023-01-05T08:06:18.249Z,10.35
2023-01-05T08:08:45.320Z,10.30
2023-01-05T08:11:16.597Z,10.35
2023-01-05T08:14:02.385Z,10.37
2023-01-05T08:16:31.034Z,10.36
2023-01-05T08:18:57.922Z,10.36
2023-01-05T08:21:25.468Z,10.37
2023-01-05T08:23:53.178Z,10.33
2023-01-05T08:26:22.588Z,10.26
2023-01-05T08:28:49.581Z,10.33
2023-01-05T08:31:21.698Z,10.43
2023-01-05T08:33:48.542Z,10.38
2023-01-05T08:36:18.839Z,10.46
2023-01-05T08:38:49.195Z,10.44
2023-01-05T08:41:28.022Z,10.46
2023-01-05T08:43:56.754Z,10.47
2023-01-05T08:46:25.254Z,10.51
2023-01-05T08:48:53.602Z,10.46
2023-01-05T08:51:20.287Z,10.45
2023-01-05T08:53:46.758Z,10.56
2023-01-05T08:56:13.307Z,10.54
2023-01-05T08:58:40.520Z,10.59
2023-01-05T09:01:11.468Z,10.61
2023-01-05T09:03:38.218Z,10.59
2023-01-05T09:06:06.114Z,10.54
2023-01-05T09:08:33.476Z,10.60
2023-01-05T09:11:15.426Z,10.53
2023-01-05T09:13:45.917Z,10.59
2023-01-05T09:16:13.907Z,10.58
2023-01-05T09:18:42.210Z,10.54
2023-01-05T09:21:09.795Z,10.53
2023-01-05T09:23:37.274Z,10.62
2023-01-05T09:26:05.164Z,10.60
2023-01-05T09:28:31.943Z,10.53
2023-01-05T09:30:58.652Z,10.66
2023-01-05T09:33:25.796Z,10.67
2023-01-05T09:35:56.193Z,10.82
2023-01-05T09:38:23.571Z,10.81
2023-01-05T09:40:51.470Z,10.76
2023-01-05T09:43:23.667Z,10.77
2023-01-05T09:45:50.754Z,10.84
2023-01-05T09:48:18.567Z,10.78
2023-01-05T09:50:47.428Z,10.60
2023-01-05T09:53:14.885Z,10.72
2023-01-05T09:55:42.548Z,10.83
2023-01-05T09:58:15.320Z,10.89
2023-01-05T10:00:45.546Z,10.88
2023-01-05T10:03:44.672Z,10.90
2023-01-05T10:06:06.921Z,10.99
2023-01-05T10:08:40.270Z,10.91
2023-01-05T10:11:30.881Z,11.04
2023-01-05T10:14:05.426Z,10.91
2023-01-05T10:16:32.173Z,11.04
2023-01-05T10:18:59.134Z,11.03
2023-01-05T10:21:55.106Z,10.91
2023-01-05T10:24:54.804Z,10.92
2023-01-05T10:27:38.288Z,11.00
2023-01-05T10:30:22.409Z,10.97
2023-01-05T10:36:01.245Z,11.09
2023-01-05T10:38:39.935Z,11.13
2023-01-05T10:41:12.270Z,11.26
2023-01-05T10:44:09.535Z,11.09
2023-01-05T10:46:44.664Z,10.93
2023-01-05T10:49:20.443Z,11.10
2023-01-05T10:51:52.825Z,11.13
2023-01-05T10:54:35.128Z,11.12
2023-01-05T10:57:35.495Z,11.09
2023-01-05T11:00:13.634Z,11.17
2023-01-05T11:02:49.651Z,11.35
2023-01-05T11:05:27.448Z,11.10
2023-01-05T11:07:59.679Z,11.21
2023-01-05T11:10:57.189Z,11.30
2023-01-05T11:13:33.441Z,11.41
2023-01-05T11:16:01.947Z,11.42
2023-01-05T11:18:36.011Z,11.43
2023-01-05T11:21:09.130Z,11.57
2023-01-05T11:23:41.750Z,11.63
2023-01-05T11:26:32.596Z,11.61
2023-01-05T11:29:03.508Z,11.68
2023-01-05T11:31:37.920Z,11.53
2023-01-05T11:34:09.590Z,11.51
2023-01-05T11:36:36.219Z,11.62
2023-01-05T11:39:03.772Z,11.59
2023-01-05T11:41:30.162Z,11.62
2023-01-05T11:44:00.311Z,11.69
2023-01-05T11:46:40.396Z,11.63
2023-01-05T11:49:08.259Z,11.67
2023-01-05T11:51:40.055Z,11.85
2023-01-05T11:54:26.364Z,12.00
2023-01-05T11:57:14.565Z,11.96
2023-01-05T11:59:41.370Z,12.15
2023-01-05T12:02:26.642Z,12.11
2023-01-05T12:05:22.187Z,11.94
2023-01-05T12:07:53.605Z,12.12
2023-01-05T12:10:47.733Z,12.24
2023-01-05T12:13:38.429Z,12.05
2023-01-05T12:16:13.925Z,12.43
2023-01-05T12:19:01.571Z,12.36
2023-01-05T12:21:45.934Z,12.28
2023-01-05T12:24:42.302Z,12.34
2023-01-05T12:27:24.412Z,12.31
2023-01-05T12:34:00.257Z,12.42
2023-01-05T12:35:52.572Z,12.52
2023-01-05T12:38:56.815Z,12.53
2023-01-05T12:41:26.153Z,12.56
2023-01-05T12:44:19.863Z,12.30
2023-01-05T12:46:55.439Z,12.37
2023-01-05T12:49:25.944Z,12.38
2023-01-05T12:52:06.386Z,12.28
2023-01-05T12:54:54.083Z,12.34
2023-01-05T12:57:27.496Z,12.42
2023-01-05T13:00:06.070Z,12.50
2023-01-05T13:02:37.520Z,12.26
2023-01-05T13:05:10.166Z,12.43
2023-01-05T13:07:48.509Z,12.40
2023-01-05T13:10:25.484Z,12.26
2023-01-05T13:13:09.368Z,12.14
2023-01-05T13:15:42.012Z,12.19
2023-01-05T13:18:14.852Z,12.23
2023-01-05T13:20:50.342Z,12.19
2023-01-05T13:23:19.869Z,12.05
2023-01-05T13:25:54.674Z,12.00
2023-01-05T13:28:23.285Z,11.99
2023-01-05T13:31:04.457Z,12.04
2023-01-05T13:33:55.607Z,12.17
2023-01-05T13:36:48.020Z,11.98
2023-01-05T13:39:33.899Z,12.09
2023-01-05T13:42:51.754Z,12.03
2023-01-05T13:45:44.713Z,12.09
2023-01-05T13:51:08.687Z,11.90
2023-01-05T13:53:37.891Z,11.90
2023-01-05T13:56:26.243Z,11.95
2023-01-05T13:58:58.684Z,12.05
2023-01-05T14:01:41.602Z,11.99
2023-01-05T14:04:21.792Z,11.98
2023-01-05T14:06:50.865Z,12.00
2023-01-05T14:09:21.532Z,12.03
2023-01-05T14:12:20.559Z,11.85
2023-01-05T14:15:24.421Z,11.85
2023-01-05T14:18:04.490Z,12.03
2023-01-05T14:20:49.385Z,12.10
2023-01-05T14:23:29.682Z,12.16
2023-01-05T14:26:06.643Z,12.18
2023-01-05T14:28:35.744Z,12.15
2023-01-05T14:31:08.372Z,12.03
2023-01-05T14:33:46.575Z,12.02
2023-01-05T14:36:47.579Z,11.89
2023-01-05T14:39:20.176Z,12.00
2023-01-05T14:42:00.423Z,11.94
2023-01-05T14:44:33.708Z,11.94
2023-01-05T14:47:00.663Z,11.95
2023-01-05T14:49:32.224Z,11.87
2023-01-05T14:52:00.496Z,11.86
2023-01-05T14:55:21.693Z,11.69
2023-01-05T14:57:56.768Z,11.66
2023-01-05T15:00:39.950Z,11.53
2023-01-05T15:05:56.410Z,11.43
2023-01-05T15:08:34.158Z,11.42
2023-01-05T15:11:09.923Z,11.40
2023-01-05T15:14:13.386Z,11.43
2023-01-05T15:16:55.154Z,11.30
2023-01-05T15:20:00.712Z,11.14
2023-01-05T15:22:52.604Z,11.15
2023-01-05T15:25:40.868Z,11.24
2023-01-05T15:28:18.308Z,11.28
2023-01-05T15:31:06.483Z,11.17
2023-01-05T15:33:41.711Z,11.18
2023-01-05T15:36:18.441Z,11.24
2023-01-05T15:38:46.311Z,11.35
2023-01-05T15:41:14.029Z,11.29
2023-01-05T15:43:41.557Z,11.23
2023-01-05T15:46:08.651Z,11.28
2023-01-05T15:48:43.546Z,11.11
2023-01-05T15:51:12.450Z,11.14
2023-01-05T15:53:41.142Z,11.22
2023-01-05T15:56:34.275Z,11.12
2023-01-05T15:59:02.333Z,11.18
2023-01-05T16:01:29.437Z,11.25
2023-01-05T16:04:09.947Z,11.21
2023-01-05T16:06:39.420Z,11.15
2023-01-05T16:09:23.282Z,11.08
2023-01-05T16:11:51.429Z,11.15
2023-01-05T16:14:25.713Z,11.05
2023-01-05T16:16:54.764Z,11.09
2023-01-05T16:19:34.914Z,10.98
2023-01-05T16:22:08.139Z,10.99
2023-01-05T16:24:41.915Z,10.99
2023-01-05T16:27:11.247Z,10.92
2023-01-05T16:29:47.024Z,10.74
2023-01-05T16:32:28.725Z,10.64
2023-01-05T16:35:29.267Z,10.69
2023-01-05T16:38:12.933Z,10.73
2023-01-05T16:40:45.537Z,10.66
2023-01-05T16:43:34.937Z,10.48
2023-01-05T16:46:29.036Z,10.56
2023-01-05T16:49:26.444Z,10.55
2023-01-05T16:51:54.110Z,10.61
2023-01-05T16:54:36.199Z,10.63
2023-01-05T16:57:28.903Z,10.64
2023-01-05T16:59:56.129Z,10.63
2023-01-05T17:02:45.674Z,10.68
2023-01-05T17:05:20.767Z,10.60
2023-01-05T17:07:49.792Z,10.69
2023-01-05T17:10:26.021Z,10.71
2023-01-05T17:12:56.537Z,10.69
2023-01-05T17:15:24.914Z,10.66
2023-01-05T17:17:55.184Z,10.71
2023-01-05T17:20:23.005Z,10.68
2023-01-05T17:22:50.505Z,10.71
2023-01-05T17:25:17.070Z,10.73
2023-01-05T17:27:44.077Z,10.69
2023-01-05T17:30:19.206Z,10.60
2023-01-05T17:32:45.943Z,10.70
2023-01-05T17:35:12.698Z,10.70
2023-01-05T17:37:39.859Z,10.75
2023-01-05T17:40:07.435Z,10.66
2023-01-05T17:42:42.750Z,10.71
2023-01-05T17:45:17.238Z,10.82
2023-01-05T17:47:44.112Z,10.83
2023-01-05T17:50:16.665Z,10.85
2023-01-05T17:52:43.158Z,10.81
2023-01-05T17:55:10.403Z,10.79
2023-01-05T17:57:37.126Z,10.81
2023-01-05T18:00:06.048Z,10.76
2023-01-05T18:02:32.724Z,10.69
2023-01-05T18:04:59.334Z,10.80
2023-01-05T18:07:25.857Z,10.68
2023-01-05T18:09:52.584Z,10.76
2023-01-05T18:12:18.977Z,10.79
2023-01-05T18:14:45.496Z,10.80
2023-01-05T18:17:11.986Z,10.79
2023-01-05T18:19:38.378Z,10.84
2023-01-05T18:22:05.722Z,10.67
2023-01-05T18:24:32.193Z,10.80
2023-01-05T18:26:58.660Z,10.75
2023-01-05T18:29:25.324Z,10.82
2023-01-05T18:31:53.566Z,10.74
2023-01-05T18:34:20.101Z,10.84
2023-01-05T18:36:48.442Z,10.86
2023-01-05T18:39:16.884Z,10.86
2023-01-05T18:41:43.260Z,10.86
2023-01-05T18:44:09.783Z,10.86
2023-01-05T18:46:36.280Z,10.90
2023-01-05T18:49:02.663Z,10.82
2023-01-05T18:51:29.070Z,10.99
2023-01-05T18:53:55.443Z,10.86
2023-01-05T18:56:21.838Z,10.90
2023-01-05T18:58:48.252Z,10.90
2023-01-05T19:01:17.583Z,10.91
2023-01-05T19:03:44.186Z,10.94
2023-01-05T19:06:15.832Z,11.00
2023-01-05T19:08:44.608Z,11.02
2023-01-05T19:11:27.806Z,10.92
2023-01-05T19:13:55.829Z,11.06
2023-01-05T19:16:25.299Z,11.05
2023-01-05T19:18:54.642Z,11.09
2023-01-05T19:21:22.218Z,11.04
2023-01-05T19:23:49.801Z,11.00
2023-01-05T19:26:16.233Z,11.11
2023-01-05T19:28:45.188Z,11.04
2023-01-05T19:31:13.800Z,11.09
2023-01-05T19:33:41.304Z,11.02
2023-01-05T19:36:10.834Z,11.04
2023-01-05T19:38:37.974Z,11.01
2023-01-05T19:41:12.601Z,11.01
2023-01-05T19:43:41.835Z,11.04
2023-01-05T19:46:13.421Z,11.02
2023-01-05T19:48:41.953Z,11.08
2023-01-05T19:51:11.003Z,11.06
2023-01-05T19:53:38.571Z,11.06
2023-01-05T19:56:13.071Z,10.89
2023-01-05T19:58:40.701Z,11.04
2023-01-05T20:01:08.566Z,11.06
2023-01-05T20:03:35.067Z,10.97
2023-01-05T20:06:09.626Z,11.03
2023-01-05T20:08:36.561Z,11.05
2023-01-05T20:11:12.579Z,11.05
2023-01-05T20:13:39.693Z,11.08
2023-01-05T20:16:08.595Z,11.04
2023-01-05T20:18:35.364Z,11.05
2023-01-05T20:21:03.440Z,10.97
2023-01-05T20:23:36.335Z,10.95
2023-01-05T20:26:12.241Z,11.05
2023-01-05T20:28:39.317Z,11.04
2023-01-05T20:31:13.888Z,10.96
2023-01-05T20:33:40.283Z,10.97
2023-01-05T20:36:07.125Z,10.94
2023-01-05T20:38:33.695Z,10.97
2023-01-05T20:41:00.106Z,10.99
2023-01-05T20:43:26.610Z,11.02
2023-01-05T20:45:53.001Z,11.05
2023-01-05T20:48:19.438Z,11.04
2023-01-05T20:50:46.253Z,11.01
2023-01-05T20:53:12.678Z,11.04
2023-01-05T20:55:40.054Z,11.09
2023-01-05T20:58:06.789Z,11.10
2023-01-05T21:00:33.259Z,11.10
2023-01-05T21:02:59.716Z,11.10
2023-01-05T21:05:26.168Z,11.10
2023-01-05T21:07:52.700Z,11.03
2023-01-05T21:10:19.740Z,11.09
2023-01-05T21:12:46.331Z,11.04
2023-01-05T21:15:12.711Z,11.09
2023-01-05T21:17:39.837Z,11.07
2023-01-05T21:20:07.923Z,11.02
2023-01-05T21:22:34.999Z,10.99
2023-01-05T21:25:01.494Z,10.97
2023-01-05T21:27:27.987Z,10.94
2023-01-05T21:29:54.463Z,11.01
2023-01-05T21:32:20.862Z,11.05
2023-01-05T21:34:47.340Z,11.11
2023-01-05T21:37:13.758Z,11.11
2023-01-05T21:39:40.201Z,11.12
2023-01-05T21:42:25.251Z,11.11
2023-01-05T21:44:51.806Z,11.11
2023-01-05T21:47:18.242Z,11.11
2023-01-05T21:49:45.436Z,11.12
2023-01-05T21:52:30.604Z,11.02
2023-01-05T21:55:15.727Z,11.03
2023-01-05T21:57:42.267Z,11.00
2023-01-05T22:00:09.087Z,10.93
2023-01-05T22:02:35.464Z,11.07
2023-01-05T22:05:02.031Z,11.02
2023-01-05T22:07:28.693Z,11.02
2023-01-05T22:09:55.094Z,11.03
2023-01-05T22:12:21.592Z,11.05
2023-01-05T22:14:47.969Z,11.04
2023-01-05T22:17:14.518Z,11.06
2023-01-05T22:19:40.950Z,11.04
2023-01-05T22:22:07.355Z,10.99
2023-01-05T22:24:33.892Z,11.04
2023-01-05T22:27:00.269Z,11.02
2023-01-05T22:29:26.713Z,10.84
2023-01-05T22:31:53.275Z,10.99
2023-01-05T22:34:19.869Z,11.00
2023-01-05T22:36:46.299Z,10.98
2023-01-05T22:39:12.896Z,10.99
2023-01-05T22:41:39.437Z,10.85
2023-01-05T22:44:06.062Z,10.97
2023-01-05T22:46:33.165Z,11.01
2023-01-05T22:48:59.867Z,10.95
2023-01-05T22:51:36.660Z,10.91
2023-01-05T22:54:04.020Z,10.93
2023-01-05T22:56:31.933Z,11.02
2023-01-05T22:58:58.924Z,10.98
2023-01-05T23:01:34.061Z,10.89
2023-01-05T23:04:01.477Z,10.85
2023-01-05T23:06:28.495Z,10.87
2023-01-05T23:08:55.575Z,10.87
2023-01-05T23:11:28.254Z,10.80
2023-01-05T23:13:55.737Z,10.92
2023-01-05T23:16:22.567Z,10.85
2023-01-05T23:18:50.120Z,10.71
2023-01-05T23:21:18.512Z,10.85
2023-01-05T23:23:45.307Z,10.82
2023-01-05T23:26:13.378Z,10.74
2023-01-05T23:28:40.350Z,10.81
2023-01-05T23:31:06.960Z,10.73
2023-01-05T23:33:35.400Z,10.80
2023-01-05T23:36:01.890Z,10.75
2023-01-05T23:38:28.547Z,10.86
2023-01-05T23:40:56.250Z,10.78
2023-01-05T23:43:25.232Z,10.82
2023-01-05T23:45:52.807Z,10.86
2023-01-05T23:48:19.235Z,10.81
2023-01-05T23:50:47.684Z,10.91
2023-01-05T23:53:14.847Z,10.79
2023-01-05T23:55:41.261Z,10.82
2023-01-05T23:58:08.508Z,10.87
